sensor_id;sensor_type;location;lat;lon;timestamp;pressure;altitude;pressure_sealevel;temperature;humidity
35694;BME280;21812;55.536;37.664;2023-04-09T00:01:40;100822.03;;;9.66;46.98
35694;BME280;21812;55.536;37.664;2023-04-09T00:04:06;100824.31;;;9.61;47.30
35694;BME280;21812;55.536;37.664;2023-04-09T00:06:32;100824.16;;;9.63;47.07
35694;BME280;21812;55.536;37.664;2023-04-09T00:08:57;100830.91;;;9.49;47.63
35694;BME280;21812;55.536;37.664;2023-04-09T00:11:23;100822.88;;;9.41;48.18
35694;BME280;21812;55.536;37.664;2023-04-09T00:13:48;100829.75;;;9.51;48.52
35694;BME280;21812;55.536;37.664;2023-04-09T00:16:14;100829.47;;;9.54;48.71
35694;BME280;21812;55.536;37.664;2023-04-09T00:18:40;100822.25;;;9.47;48.05
35694;BME280;21812;55.536;37.664;2023-04-09T00:21:06;100828.66;;;9.36;47.86
35694;BME280;21812;55.536;37.664;2023-04-09T00:23:33;100820.88;;;9.43;47.81
35694;BME280;21812;55.536;37.664;2023-04-09T00:26:00;100810.53;;;9.66;48.61
35694;BME280;21812;55.536;37.664;2023-04-09T00:28:25;100820.66;;;9.88;47.54
35694;BME280;21812;55.536;37.664;2023-04-09T00:30:51;100822.44;;;9.79;47.30
35694;BME280;21812;55.536;37.664;2023-04-09T00:33:17;100828.00;;;9.60;47.56
35694;BME280;21812;55.536;37.664;2023-04-09T00:35:45;100828.34;;;9.39;48.45
35694;BME280;21812;55.536;37.664;2023-04-09T00:38:11;100821.28;;;9.30;49.04
35694;BME280;21812;55.536;37.664;2023-04-09T00:40:36;100820.25;;;9.49;48.42
35694;BME280;21812;55.536;37.664;2023-04-09T00:43:02;100824.31;;;9.87;47.97
35694;BME280;21812;55.536;37.664;2023-04-09T00:45:28;100819.91;;;10.04;48.08
35694;BME280;21812;55.536;37.664;2023-04-09T00:47:53;100818.41;;;10.36;47.71
35694;BME280;21812;55.536;37.664;2023-04-09T00:50:20;100816.50;;;10.28;46.78
35694;BME280;21812;55.536;37.664;2023-04-09T00:52:46;100818.72;;;10.33;46.14
35694;BME280;21812;55.536;37.664;2023-04-09T00:55:12;100822.16;;;9.91;45.97
35694;BME280;21812;55.536;37.664;2023-04-09T00:57:38;100819.72;;;9.45;47.29
35694;BME280;21812;55.536;37.664;2023-04-09T01:00:04;100824.72;;;9.22;48.17
35694;BME280;21812;55.536;37.664;2023-04-09T01:02:31;100821.72;;;9.25;48.33
35694;BME280;21812;55.536;37.664;2023-04-09T01:05:00;100819.59;;;9.29;48.65
35694;BME280;21812;55.536;37.664;2023-04-09T01:07:58;100822.59;;;9.52;49.02
35694;BME280;21812;55.536;37.664;2023-04-09T01:10:46;100781.63;;;9.87;47.88
35694;BME280;21812;55.536;37.664;2023-04-09T01:13:29;100755.09;;;9.51;47.06
35694;BME280;21812;55.536;37.664;2023-04-09T01:15:59;100825.16;;;9.35;47.64
35694;BME280;21812;55.536;37.664;2023-04-09T01:18:34;100788.22;;;9.23;48.10
35694;BME280;21812;55.536;37.664;2023-04-09T01:21:06;100823.16;;;9.37;47.73
35694;BME280;21812;55.536;37.664;2023-04-09T01:24:08;100824.16;;;9.36;48.21
35694;BME280;21812;55.536;37.664;2023-04-09T01:29:32;100822.63;;;9.34;48.28
35694;BME280;21812;55.536;37.664;2023-04-09T01:32:01;100815.69;;;9.41;48.29
35694;BME280;21812;55.536;37.664;2023-04-09T01:34:28;100826.88;;;9.45;47.74
35694;BME280;21812;55.536;37.664;2023-04-09T01:36:58;100825.06;;;9.45;48.07
35694;BME280;21812;55.536;37.664;2023-04-09T01:39:25;100830.16;;;9.38;47.87
35694;BME280;21812;55.536;37.664;2023-04-09T01:41:51;100824.53;;;9.42;48.10
35694;BME280;21812;55.536;37.664;2023-04-09T01:44:18;100825.19;;;9.44;47.62
35694;BME280;21812;55.536;37.664;2023-04-09T01:46:48;100824.94;;;9.55;47.74
35694;BME280;21812;55.536;37.664;2023-04-09T01:49:16;100756.53;;;8.93;48.15
35694;BME280;21812;55.536;37.664;2023-04-09T01:51:42;100820.31;;;9.13;48.77
35694;BME280;21812;55.536;37.664;2023-04-09T01:54:08;100826.56;;;9.04;48.90
35694;BME280;21812;55.536;37.664;2023-04-09T01:56:44;100829.75;;;9.07;49.61
35694;BME280;21812;55.536;37.664;2023-04-09T01:59:11;100838.13;;;8.94;48.76
35694;BME280;21812;55.536;37.664;2023-04-09T02:01:52;100815.72;;;8.51;49.76
35694;BME280;21812;55.536;37.664;2023-04-09T02:04:29;100832.31;;;8.81;51.13
35694;BME280;21812;55.536;37.664;2023-04-09T02:07:04;100826.78;;;8.92;50.17
35694;BME280;21812;55.536;37.664;2023-04-09T02:09:31;100829.53;;;8.83;49.73
35694;BME280;21812;55.536;37.664;2023-04-09T02:12:02;100791.69;;;8.79;49.65
35694;BME280;21812;55.536;37.664;2023-04-09T02:14:30;100822.50;;;9.17;49.19
35694;BME280;21812;55.536;37.664;2023-04-09T02:16:57;100830.13;;;8.94;48.90
35694;BME280;21812;55.536;37.664;2023-04-09T02:19:22;100828.28;;;8.59;49.41
35694;BME280;21812;55.536;37.664;2023-04-09T02:21:48;100827.75;;;8.55;50.38
35694;BME280;21812;55.536;37.664;2023-04-09T02:24:14;100825.53;;;8.51;50.05
35694;BME280;21812;55.536;37.664;2023-04-09T02:26:39;100832.59;;;8.42;50.97
35694;BME280;21812;55.536;37.664;2023-04-09T02:29:05;100825.28;;;8.44;51.29
35694;BME280;21812;55.536;37.664;2023-04-09T02:31:33;100834.53;;;8.40;50.87
35694;BME280;21812;55.536;37.664;2023-04-09T02:33:59;100830.94;;;8.31;51.19
35694;BME280;21812;55.536;37.664;2023-04-09T02:36:24;100826.44;;;8.32;51.65
35694;BME280;21812;55.536;37.664;2023-04-09T02:38:52;100830.50;;;8.36;51.36
35694;BME280;21812;55.536;37.664;2023-04-09T02:41:18;100831.16;;;8.48;51.62
35694;BME280;21812;55.536;37.664;2023-04-09T02:43:44;100831.44;;;8.45;51.35
35694;BME280;21812;55.536;37.664;2023-04-09T02:46:12;100829.47;;;8.47;51.50
35694;BME280;21812;55.536;37.664;2023-04-09T02:48:37;100830.03;;;8.40;51.06
35694;BME280;21812;55.536;37.664;2023-04-09T02:51:06;100831.88;;;8.40;51.52
35694;BME280;21812;55.536;37.664;2023-04-09T02:53:31;100823.09;;;8.30;51.89
35694;BME280;21812;55.536;37.664;2023-04-09T02:55:57;100832.28;;;8.45;51.95
35694;BME280;21812;55.536;37.664;2023-04-09T02:58:23;100837.34;;;8.38;51.58
35694;BME280;21812;55.536;37.664;2023-04-09T03:00:48;100845.97;;;8.50;53.00
35694;BME280;21812;55.536;37.664;2023-04-09T03:03:14;100837.78;;;8.61;51.79
35694;BME280;21812;55.536;37.664;2023-04-09T03:05:40;100827.00;;;8.81;51.39
35694;BME280;21812;55.536;37.664;2023-04-09T03:08:06;100835.59;;;8.93;50.41
35694;BME280;21812;55.536;37.664;2023-04-09T03:10:31;100835.38;;;9.04;50.66
35694;BME280;21812;55.536;37.664;2023-04-09T03:12:57;100834.53;;;9.04;50.40
35694;BME280;21812;55.536;37.664;2023-04-09T03:15:24;100830.91;;;9.05;50.19
35694;BME280;21812;55.536;37.664;2023-04-09T03:17:50;100836.59;;;8.92;50.09
35694;BME280;21812;55.536;37.664;2023-04-09T03:20:16;100838.03;;;8.68;50.58
35694;BME280;21812;55.536;37.664;2023-04-09T03:22:41;100839.47;;;8.63;51.28
35694;BME280;21812;55.536;37.664;2023-04-09T03:25:20;100844.19;;;8.69;51.19
35694;BME280;21812;55.536;37.664;2023-04-09T03:27:50;100843.84;;;8.99;51.43
35694;BME280;21812;55.536;37.664;2023-04-09T03:30:23;100843.84;;;8.99;50.25
35694;BME280;21812;55.536;37.664;2023-04-09T03:32:49;100840.63;;;8.96;50.62
35694;BME280;21812;55.536;37.664;2023-04-09T03:35:15;100844.66;;;9.00;50.65
35694;BME280;21812;55.536;37.664;2023-04-09T03:37:43;100840.94;;;9.11;50.48
35694;BME280;21812;55.536;37.664;2023-04-09T03:40:14;100846.03;;;9.22;50.49
35694;BME280;21812;55.536;37.664;2023-04-09T03:42:43;100839.88;;;9.48;50.38
35694;BME280;21812;55.536;37.664;2023-04-09T03:45:12;100838.88;;;9.41;49.89
35694;BME280;21812;55.536;37.664;2023-04-09T03:47:42;100834.56;;;9.48;49.84
35694;BME280;21812;55.536;37.664;2023-04-09T03:50:08;100839.59;;;9.51;49.78
35694;BME280;21812;55.536;37.664;2023-04-09T03:52:44;100840.13;;;9.81;49.97
35694;BME280;21812;55.536;37.664;2023-04-09T03:55:10;100836.34;;;9.91;49.00
35694;BME280;21812;55.536;37.664;2023-04-09T03:57:36;100834.44;;;10.10;48.93
35694;BME280;21812;55.536;37.664;2023-04-09T04:00:07;100837.81;;;10.20;48.96
35694;BME280;21812;55.536;37.664;2023-04-09T04:02:50;100836.31;;;10.17;48.94
35694;BME280;21812;55.536;37.664;2023-04-09T04:05:22;100782.47;;;9.88;48.80
35694;BME280;21812;55.536;37.664;2023-04-09T04:07:49;100835.66;;;10.24;48.06
35694;BME280;21812;55.536;37.664;2023-04-09T04:10:23;100843.00;;;10.22;48.78
35694;BME280;21812;55.536;37.664;2023-04-09T04:12:49;100834.63;;;10.16;48.81
35694;BME280;21812;55.536;37.664;2023-04-09T04:15:21;100837.06;;;10.02;48.61
35694;BME280;21812;55.536;37.664;2023-04-09T04:17:52;100840.56;;;10.02;49.46
35694;BME280;21812;55.536;37.664;2023-04-09T04:20:37;100823.06;;;10.00;49.07
35694;BME280;21812;55.536;37.664;2023-04-09T04:23:07;100836.88;;;9.95;49.68
35694;BME280;21812;55.536;37.664;2023-04-09T04:25:39;100821.22;;;10.00;50.11
35694;BME280;21812;55.536;37.664;2023-04-09T04:28:05;100833.00;;;10.24;49.59
35694;BME280;21812;55.536;37.664;2023-04-09T04:30:40;100823.25;;;10.49;48.77
35694;BME280;21812;55.536;37.664;2023-04-09T04:33:07;100828.28;;;10.52;48.64
35694;BME280;21812;55.536;37.664;2023-04-09T04:35:40;100818.50;;;11.02;48.67
35694;BME280;21812;55.536;37.664;2023-04-09T04:38:11;100816.50;;;11.53;47.75
35694;BME280;21812;55.536;37.664;2023-04-09T04:40:38;100823.06;;;12.06;46.13
35694;BME280;21812;55.536;37.664;2023-04-09T04:43:05;100814.47;;;12.59;45.48
35694;BME280;21812;55.536;37.664;2023-04-09T04:45:30;100816.03;;;13.22;44.06
35694;BME280;21812;55.536;37.664;2023-04-09T04:48:02;100816.97;;;13.67;42.63
35694;BME280;21812;55.536;37.664;2023-04-09T04:50:29;100816.13;;;13.52;41.84
35694;BME280;21812;55.536;37.664;2023-04-09T04:53:08;100815.50;;;13.80;41.45
35694;BME280;21812;55.536;37.664;2023-04-09T04:55:42;100811.22;;;14.30;41.25
35694;BME280;21812;55.536;37.664;2023-04-09T04:58:12;100808.56;;;14.52;40.02
35694;BME280;21812;55.536;37.664;2023-04-09T05:00:44;100806.34;;;14.70;39.98
35694;BME280;21812;55.536;37.664;2023-04-09T05:03:12;100808.19;;;14.91;39.23
35694;BME280;21812;55.536;37.664;2023-04-09T05:06:04;100812.38;;;14.57;39.67
35694;BME280;21812;55.536;37.664;2023-04-09T05:08:38;100814.31;;;14.48;39.99
35694;BME280;21812;55.536;37.664;2023-04-09T05:11:03;100807.91;;;13.68;39.68
35694;BME280;21812;55.536;37.664;2023-04-09T05:13:34;100818.69;;;13.22;42.25
35694;BME280;21812;55.536;37.664;2023-04-09T05:16:02;100826.94;;;12.98;41.30
35694;BME280;21812;55.536;37.664;2023-04-09T05:18:30;100819.84;;;12.59;43.45
35694;BME280;21812;55.536;37.664;2023-04-09T05:20:56;100819.91;;;12.42;43.27
35694;BME280;21812;55.536;37.664;2023-04-09T05:23:22;100820.59;;;11.97;43.58
35694;BME280;21812;55.536;37.664;2023-04-09T05:25:48;100826.22;;;12.18;45.07
35694;BME280;21812;55.536;37.664;2023-04-09T05:28:29;100825.16;;;12.36;44.07
35694;BME280;21812;55.536;37.664;2023-04-09T05:31:05;100820.91;;;12.73;44.70
35694;BME280;21812;55.536;37.664;2023-04-09T05:33:40;100824.41;;;12.73;43.21
35694;BME280;21812;55.536;37.664;2023-04-09T05:36:15;100797.69;;;12.33;44.33
35694;BME280;21812;55.536;37.664;2023-04-09T05:38:43;100832.53;;;12.25;44.64
35694;BME280;21812;55.536;37.664;2023-04-09T05:41:08;100826.34;;;12.64;45.19
35694;BME280;21812;55.536;37.664;2023-04-09T05:43:41;100830.16;;;12.93;43.98
35694;BME280;21812;55.536;37.664;2023-04-09T05:46:07;100839.28;;;12.84;44.10
35694;BME280;21812;55.536;37.664;2023-04-09T05:48:36;100827.34;;;13.33;43.93
35694;BME280;21812;55.536;37.664;2023-04-09T05:51:02;100834.47;;;13.78;41.90
35694;BME280;21812;55.536;37.664;2023-04-09T05:53:28;100821.91;;;13.79;42.54
35694;BME280;21812;55.536;37.664;2023-04-09T05:55:55;100821.97;;;13.85;42.42
35694;BME280;21812;55.536;37.664;2023-04-09T05:58:27;100771.53;;;13.96;41.59
35694;BME280;21812;55.536;37.664;2023-04-09T06:00:55;100818.09;;;14.69;40.65
35694;BME280;21812;55.536;37.664;2023-04-09T06:03:20;100823.41;;;14.47;40.08
35694;BME280;21812;55.536;37.664;2023-04-09T06:05:46;100824.59;;;14.60;40.82
35694;BME280;21812;55.536;37.664;2023-04-09T06:08:12;100825.97;;;14.92;40.19
35694;BME280;21812;55.536;37.664;2023-04-09T06:10:38;100827.56;;;15.30;39.54
35694;BME280;21812;55.536;37.664;2023-04-09T06:13:04;100832.34;;;15.06;39.28
35694;BME280;21812;55.536;37.664;2023-04-09T06:15:30;100830.28;;;14.86;39.81
35694;BME280;21812;55.536;37.664;2023-04-09T06:17:56;100827.19;;;15.33;39.76
35694;BME280;21812;55.536;37.664;2023-04-09T06:20:22;100823.88;;;15.09;38.44
35694;BME280;21812;55.536;37.664;2023-04-09T06:22:48;100835.97;;;14.77;39.85
35694;BME280;21812;55.536;37.664;2023-04-09T06:25:13;100838.59;;;14.92;39.76
35694;BME280;21812;55.536;37.664;2023-04-09T06:27:39;100836.66;;;15.29;39.69
35694;BME280;21812;55.536;37.664;2023-04-09T06:30:05;100833.13;;;15.78;39.00
35694;BME280;21812;55.536;37.664;2023-04-09T06:32:31;100824.41;;;16.04;38.21
35694;BME280;21812;55.536;37.664;2023-04-09T06:34:56;100835.78;;;15.99;37.46
35694;BME280;21812;55.536;37.664;2023-04-09T06:37:22;100832.22;;;15.92;38.34
35694;BME280;21812;55.536;37.664;2023-04-09T06:39:48;100828.53;;;16.00;37.93
35694;BME280;21812;55.536;37.664;2023-04-09T06:42:14;100833.34;;;16.11;37.75
35694;BME280;21812;55.536;37.664;2023-04-09T06:44:50;100831.72;;;16.23;37.84
35694;BME280;21812;55.536;37.664;2023-04-09T06:47:16;100828.03;;;16.31;37.17
35694;BME280;21812;55.536;37.664;2023-04-09T06:49:41;100835.28;;;16.31;37.33
35694;BME280;21812;55.536;37.664;2023-04-09T06:52:07;100831.53;;;16.25;36.96
35694;BME280;21812;55.536;37.664;2023-04-09T06:54:32;100840.88;;;16.29;37.35
35694;BME280;21812;55.536;37.664;2023-04-09T06:56:58;100829.91;;;16.31;37.41
35694;BME280;21812;55.536;37.664;2023-04-09T06:59:24;100807.13;;;15.63;36.87
35694;BME280;21812;55.536;37.664;2023-04-09T07:01:49;100834.53;;;15.45;38.50
35694;BME280;21812;55.536;37.664;2023-04-09T07:04:15;100834.09;;;14.77;39.33
35694;BME280;21812;55.536;37.664;2023-04-09T07:06:40;100841.88;;;15.09;39.73
35694;BME280;21812;55.536;37.664;2023-04-09T07:09:06;100835.13;;;15.41;39.11
35694;BME280;21812;55.536;37.664;2023-04-09T07:11:32;100835.44;;;15.81;38.76
35694;BME280;21812;55.536;37.664;2023-04-09T07:13:58;100835.47;;;16.22;38.02
35694;BME280;21812;55.536;37.664;2023-04-09T07:16:23;100827.72;;;16.54;37.35
35694;BME280;21812;55.536;37.664;2023-04-09T07:18:49;100839.25;;;16.90;36.36
35694;BME280;21812;55.536;37.664;2023-04-09T07:21:15;100844.53;;;16.56;35.90
35694;BME280;21812;55.536;37.664;2023-04-09T07:23:41;100843.25;;;16.04;36.69
35694;BME280;21812;55.536;37.664;2023-04-09T07:26:07;100837.31;;;16.15;37.84
35694;BME280;21812;55.536;37.664;2023-04-09T07:28:32;100843.66;;;15.73;36.59
35694;BME280;21812;55.536;37.664;2023-04-09T07:31:00;100842.97;;;15.14;37.14
35694;BME280;21812;55.536;37.664;2023-04-09T07:33:29;100854.63;;;14.63;38.36
35694;BME280;21812;55.536;37.664;2023-04-09T07:35:55;100841.50;;;14.39;38.98
35694;BME280;21812;55.536;37.664;2023-04-09T07:38:22;100843.97;;;14.70;40.06
35694;BME280;21812;55.536;37.664;2023-04-09T07:40:47;100847.59;;;14.99;39.07
35694;BME280;21812;55.536;37.664;2023-04-09T07:43:13;100845.00;;;15.34;39.07
35694;BME280;21812;55.536;37.664;2023-04-09T07:45:38;100840.94;;;16.01;37.80
35694;BME280;21812;55.536;37.664;2023-04-09T07:48:04;100848.03;;;16.50;36.62
35694;BME280;21812;55.536;37.664;2023-04-09T07:50:30;100843.72;;;16.69;35.22
35694;BME280;21812;55.536;37.664;2023-04-09T07:52:56;100840.34;;;17.15;35.42
35694;BME280;21812;55.536;37.664;2023-04-09T07:55:21;100833.91;;;17.43;34.47
35694;BME280;21812;55.536;37.664;2023-04-09T07:57:47;100830.97;;;17.71;33.63
35694;BME280;21812;55.536;37.664;2023-04-09T08:00:13;100829.06;;;17.98;33.15
35694;BME280;21812;55.536;37.664;2023-04-09T08:02:39;100827.63;;;17.89;32.98
35694;BME280;21812;55.536;37.664;2023-04-09T08:05:05;100824.25;;;18.14;32.67
35694;BME280;21812;55.536;37.664;2023-04-09T08:07:35;100820.88;;;18.25;32.61
35694;BME280;21812;55.536;37.664;2023-04-09T08:10:01;100815.59;;;18.44;32.01
35694;BME280;21812;55.536;37.664;2023-04-09T08:12:26;100812.22;;;18.55;32.36
35694;BME280;21812;55.536;37.664;2023-04-09T08:14:54;100809.72;;;18.60;31.82
35694;BME280;21812;55.536;37.664;2023-04-09T08:17:20;100805.03;;;18.74;31.80
35694;BME280;21812;55.536;37.664;2023-04-09T08:19:46;100817.69;;;17.63;31.20
35694;BME280;21812;55.536;37.664;2023-04-09T08:22:14;100824.03;;;16.62;32.78
35694;BME280;21812;55.536;37.664;2023-04-09T08:24:41;100827.25;;;16.37;33.23
35694;BME280;21812;55.536;37.664;2023-04-09T08:27:08;100827.50;;;16.56;34.60
35694;BME280;21812;55.536;37.664;2023-04-09T08:29:33;100813.97;;;16.36;34.06
35694;BME280;21812;55.536;37.664;2023-04-09T08:31:59;100810.78;;;16.19;35.16
35694;BME280;21812;55.536;37.664;2023-04-09T08:34:25;100814.34;;;16.88;35.25
35694;BME280;21812;55.536;37.664;2023-04-09T08:36:51;100809.19;;;17.53;34.02
35694;BME280;21812;55.536;37.664;2023-04-09T08:39:17;100804.34;;;17.95;33.17
35694;BME280;21812;55.536;37.664;2023-04-09T08:41:45;100809.19;;;18.31;32.14
35694;BME280;21812;55.536;37.664;2023-04-09T08:44:11;100804.97;;;18.49;31.92
35694;BME280;21812;55.536;37.664;2023-04-09T08:46:37;100795.53;;;18.65;31.96
35694;BME280;21812;55.536;37.664;2023-04-09T08:49:03;100796.47;;;18.84;31.49
35694;BME280;21812;55.536;37.664;2023-04-09T08:51:28;100804.91;;;19.01;31.07
35694;BME280;21812;55.536;37.664;2023-04-09T08:54:00;100798.31;;;19.15;30.72
35694;BME280;21812;55.536;37.664;2023-04-09T08:56:26;100801.19;;;18.95;31.08
35694;BME280;21812;55.536;37.664;2023-04-09T08:58:52;100795.38;;;18.53;30.99
35694;BME280;21812;55.536;37.664;2023-04-09T09:01:27;100796.53;;;18.70;31.41
35694;BME280;21812;55.536;37.664;2023-04-09T09:03:59;100801.47;;;18.87;31.29
35694;BME280;21812;55.536;37.664;2023-04-09T09:06:29;100798.88;;;19.24;30.88
35694;BME280;21812;55.536;37.664;2023-04-09T09:09:08;100762.34;;;19.33;30.51
35694;BME280;21812;55.536;37.664;2023-04-09T09:11:37;100782.03;;;19.65;30.07
35694;BME280;21812;55.536;37.664;2023-04-09T09:14:05;100799.44;;;19.76;29.80
35694;BME280;21812;55.536;37.664;2023-04-09T09:16:33;100798.00;;;19.30;29.93
35694;BME280;21812;55.536;37.664;2023-04-09T09:19:02;100793.19;;;19.32;30.45
35694;BME280;21812;55.536;37.664;2023-04-09T09:21:28;100789.81;;;19.37;30.41
35694;BME280;21812;55.536;37.664;2023-04-09T09:23:55;100790.19;;;19.15;30.40
35694;BME280;21812;55.536;37.664;2023-04-09T09:26:23;100778.91;;;19.25;30.34
35694;BME280;21812;55.536;37.664;2023-04-09T09:28:49;100787.28;;;19.17;30.47
35694;BME280;21812;55.536;37.664;2023-04-09T09:31:17;100789.34;;;19.21;30.52
35694;BME280;21812;55.536;37.664;2023-04-09T09:33:43;100776.66;;;19.40;30.37
35694;BME280;21812;55.536;37.664;2023-04-09T09:36:10;100777.16;;;19.56;29.79
35694;BME280;21812;55.536;37.664;2023-04-09T09:38:55;100777.81;;;19.69;29.29
35694;BME280;21812;55.536;37.664;2023-04-09T09:41:22;100768.22;;;19.73;29.64
35694;BME280;21812;55.536;37.664;2023-04-09T09:43:49;100777.03;;;19.87;29.48
35694;BME280;21812;55.536;37.664;2023-04-09T09:46:17;100776.81;;;19.89;29.35
35694;BME280;21812;55.536;37.664;2023-04-09T09:48:45;100765.69;;;19.79;29.38
35694;BME280;21812;55.536;37.664;2023-04-09T09:51:12;100776.97;;;19.94;28.95
35694;BME280;21812;55.536;37.664;2023-04-09T09:53:39;100754.44;;;19.31;29.20
35694;BME280;21812;55.536;37.664;2023-04-09T09:56:06;100779.22;;;18.71;29.61
35694;BME280;21812;55.536;37.664;2023-04-09T09:58:37;100775.06;;;18.37;31.26
35694;BME280;21812;55.536;37.664;2023-04-09T10:01:11;100728.06;;;18.70;30.50
35694;BME280;21812;55.536;37.664;2023-04-09T10:03:38;100776.53;;;19.53;30.01
35694;BME280;21812;55.536;37.664;2023-04-09T10:06:05;100776.22;;;20.05;29.17
35694;BME280;21812;55.536;37.664;2023-04-09T10:08:32;100769.13;;;20.53;28.62
35694;BME280;21812;55.536;37.664;2023-04-09T10:10:59;100775.47;;;20.47;27.51
35694;BME280;21812;55.536;37.664;2023-04-09T10:13:30;100765.28;;;19.75;27.83
35694;BME280;21812;55.536;37.664;2023-04-09T10:15:58;100768.25;;;18.98;28.73
35694;BME280;21812;55.536;37.664;2023-04-09T10:18:24;100766.88;;;18.50;29.89
35694;BME280;21812;55.536;37.664;2023-04-09T10:20:57;100767.19;;;18.67;30.96
35694;BME280;21812;55.536;37.664;2023-04-09T10:23:35;100764.63;;;19.11;30.09
35694;BME280;21812;55.536;37.664;2023-04-09T10:26:02;100752.63;;;19.87;29.36
35694;BME280;21812;55.536;37.664;2023-04-09T10:28:29;100755.03;;;20.63;28.45
35694;BME280;21812;55.536;37.664;2023-04-09T10:30:56;100715.34;;;21.04;27.64
35694;BME280;21812;55.536;37.664;2023-04-09T10:33:26;100740.38;;;21.65;26.81
35694;BME280;21812;55.536;37.664;2023-04-09T10:35:53;100743.63;;;21.91;26.16
35694;BME280;21812;55.536;37.664;2023-04-09T10:38:32;100736.03;;;21.93;25.95
35694;BME280;21812;55.536;37.664;2023-04-09T10:41:10;100733.13;;;21.82;25.68
35694;BME280;21812;55.536;37.664;2023-04-09T10:43:37;100741.47;;;21.93;26.34
35694;BME280;21812;55.536;37.664;2023-04-09T10:46:23;100740.66;;;22.33;25.57
35694;BME280;21812;55.536;37.664;2023-04-09T10:49:55;100729.72;;;22.73;25.70
35694;BME280;21812;55.536;37.664;2023-04-09T10:57:24;100748.63;;;21.70;25.30
35694;BME280;21812;55.536;37.664;2023-04-09T10:59:52;100747.50;;;20.77;26.46
35694;BME280;21812;55.536;37.664;2023-04-09T11:02:44;100748.66;;;20.69;26.60
35694;BME280;21812;55.536;37.664;2023-04-09T11:10:26;100727.53;;;23.43;24.76
35694;BME280;21812;55.536;37.664;2023-04-09T11:12:52;100731.41;;;23.30;23.84
35694;BME280;21812;55.536;37.664;2023-04-09T11:15:19;100731.31;;;23.81;23.79
35694;BME280;21812;55.536;37.664;2023-04-09T11:17:46;100726.28;;;24.44;23.13
35694;BME280;21812;55.536;37.664;2023-04-09T11:20:18;100717.28;;;25.03;22.54
35694;BME280;21812;55.536;37.664;2023-04-09T11:22:45;100716.53;;;25.61;21.95
35694;BME280;21812;55.536;37.664;2023-04-09T11:25:18;100717.66;;;25.17;21.62
35694;BME280;21812;55.536;37.664;2023-04-09T11:27:44;100727.00;;;23.63;23.14
35694;BME280;21812;55.536;37.664;2023-04-09T11:30:10;100729.47;;;22.46;23.34
35694;BME280;21812;55.536;37.664;2023-04-09T11:32:36;100724.19;;;21.99;25.04
35694;BME280;21812;55.536;37.664;2023-04-09T11:35:02;100714.94;;;23.59;24.23
35694;BME280;21812;55.536;37.664;2023-04-09T11:37:28;100719.88;;;24.55;22.18
35694;BME280;21812;55.536;37.664;2023-04-09T11:39:54;100704.34;;;25.26;21.53
35694;BME280;21812;55.536;37.664;2023-04-09T11:42:20;100693.84;;;25.60;21.56
35694;BME280;21812;55.536;37.664;2023-04-09T11:44:47;100704.00;;;25.70;21.14
35694;BME280;21812;55.536;37.664;2023-04-09T11:47:14;100694.34;;;26.15;21.15
35694;BME280;21812;55.536;37.664;2023-04-09T11:49:42;100693.03;;;27.05;20.33
35694;BME280;21812;55.536;37.664;2023-04-09T11:52:08;100685.81;;;27.45;19.13
35694;BME280;21812;55.536;37.664;2023-04-09T11:54:35;100689.75;;;26.98;19.73
35694;BME280;21812;55.536;37.664;2023-04-09T11:57:03;100691.63;;;27.23;19.56
35694;BME280;21812;55.536;37.664;2023-04-09T11:59:29;100695.13;;;26.00;19.54
35694;BME280;21812;55.536;37.664;2023-04-09T12:01:58;100698.00;;;23.57;21.36
35694;BME280;21812;55.536;37.664;2023-04-09T12:04:24;100694.50;;;21.80;22.93
35694;BME280;21812;55.536;37.664;2023-04-09T12:06:55;100688.00;;;20.75;24.67
35694;BME280;21812;55.536;37.664;2023-04-09T12:09:22;100695.78;;;22.06;25.49
35694;BME280;21812;55.536;37.664;2023-04-09T12:11:47;100689.41;;;22.92;24.15
35694;BME280;21812;55.536;37.664;2023-04-09T12:14:17;100687.84;;;23.52;23.65
35694;BME280;21812;55.536;37.664;2023-04-09T12:16:49;100680.31;;;24.31;22.78
35694;BME280;21812;55.536;37.664;2023-04-09T12:19:15;100681.28;;;23.92;21.73
35694;BME280;21812;55.536;37.664;2023-04-09T12:21:52;100685.47;;;22.83;22.65
35694;BME280;21812;55.536;37.664;2023-04-09T12:24:22;100656.72;;;21.43;23.50
35694;BME280;21812;55.536;37.664;2023-04-09T12:26:49;100689.00;;;21.04;24.40
35694;BME280;21812;55.536;37.664;2023-04-09T12:29:17;100687.13;;;20.51;25.22
35694;BME280;21812;55.536;37.664;2023-04-09T12:31:43;100687.31;;;20.68;25.28
35694;BME280;21812;55.536;37.664;2023-04-09T12:34:10;100692.38;;;20.64;26.07
35694;BME280;21812;55.536;37.664;2023-04-09T12:36:39;100689.56;;;20.41;25.88
35694;BME280;21812;55.536;37.664;2023-04-09T12:39:08;100692.56;;;20.51;25.84
35694;BME280;21812;55.536;37.664;2023-04-09T12:41:34;100689.81;;;20.69;25.75
35694;BME280;21812;55.536;37.664;2023-04-09T12:43:59;100683.44;;;20.99;25.11
35694;BME280;21812;55.536;37.664;2023-04-09T12:46:25;100680.63;;;21.18;25.84
35694;BME280;21812;55.536;37.664;2023-04-09T12:48:52;100694.66;;;21.03;24.57
35694;BME280;21812;55.536;37.664;2023-04-09T12:51:18;100682.25;;;21.42;25.89
35694;BME280;21812;55.536;37.664;2023-04-09T12:53:44;100672.31;;;21.60;25.45
35694;BME280;21812;55.536;37.664;2023-04-09T12:56:10;100683.44;;;20.99;24.48
35694;BME280;21812;55.536;37.664;2023-04-09T12:58:35;100678.38;;;20.79;25.59
35694;BME280;21812;55.536;37.664;2023-04-09T13:01:02;100677.06;;;21.05;26.25
35694;BME280;21812;55.536;37.664;2023-04-09T13:03:28;100674.25;;;21.00;25.52